Time;durP1;ratioP1;P1;durP2;ratioP2;P2;SDS_P1;SDS_P2;PMS_P1;PMS_P2;Temp;Humidity;BMP_temperature;BMP_pressure;BME280_temperature;BME280_humidity;BME280_pressure;Samples;Min_cycle;Max_cycle;Signal;HPM_P1;HPM_P2
2022/02/10 00:16:30;;;;;;;0.10;0.10;;;;;;;9.90;70.93;100974.00;5107344;28;20035;-69
2022/02/10 00:22:00;;;;;;;0.70;0.30;;;;;;;9.81;70.23;100984.50;5045964;28;20036;-70
2022/02/10 00:35:17;;;;;;;0.45;0.45;;;;;;;9.57;71.16;100976.47;5089229;28;20097;-69
2022/02/10 00:37:58;;;;;;;0.52;0.38;;;;;;;9.54;71.12;100984.31;5102512;28;20027;-69
2022/02/10 00:40:30;;;;;;;0.40;0.40;;;;;;;9.52;71.10;100992.75;5101935;28;20028;-70
2022/02/10 00:42:57;;;;;;;0.40;0.40;;;;;;;9.47;71.07;100992.66;5085599;28;20048;-69
2022/02/10 00:45:29;;;;;;;0.50;0.30;;;;;;;9.40;70.98;100989.25;5101605;28;20028;-70
2022/02/10 00:47:58;;;;;;;0.40;0.30;;;;;;;9.40;71.20;100986.50;5085478;28;20103;-70
2022/02/10 00:50:27;;;;;;;0.30;0.30;;;;;;;9.38;71.36;100983.22;5087402;28;20055;-71
2022/02/10 00:53:31;;;;;;;0.30;0.30;;;;;;;9.32;71.16;100984.19;5103636;28;20468;-70
2022/02/10 00:55:47;;;;;;;1.63;0.63;;;;;;;9.26;71.38;100975.91;5101026;28;20051;-70
2022/02/10 00:58:21;;;;;;;0.35;0.30;;;;;;;9.25;71.34;100987.88;5100214;28;20024;-72
2022/02/10 01:30:27;;;;;;;0.80;0.30;;;;;;;8.86;72.22;100954.94;5100199;28;20096;-69
2022/02/10 01:32:56;;;;;;;0.40;0.30;;;;;;;8.84;72.19;100967.16;5106392;28;20023;-71
2022/02/10 01:35:24;;;;;;;0.60;0.52;;;;;;;8.79;72.37;100954.25;5111626;28;20040;-71
2022/02/10 01:37:50;;;;;;;0.20;0.20;;;;;;;8.78;72.11;100951.75;5106940;28;20050;-69
2022/02/10 01:41:09;;;;;;;0.10;0.10;;;;;;;8.77;72.00;100961.81;5089860;28;20031;-71
2022/02/10 02:04:44;;;;;;;0.20;0.20;;;;;;;8.40;72.70;100978.44;5085534;28;20023;-69
2022/02/10 02:07:10;;;;;;;1.25;0.35;;;;;;;8.36;72.72;100977.25;5104742;28;20392;-68
2022/02/10 02:09:35;;;;;;;0.50;0.40;;;;;;;8.32;72.67;100971.47;5088085;28;20060;-68
2022/02/10 02:12:06;;;;;;;0.63;0.43;;;;;;;8.33;73.17;100975.00;5110910;28;20023;-70
2022/02/10 02:14:31;;;;;;;2.15;0.40;;;;;;;8.32;72.96;100960.56;5101465;28;20477;-69
2022/02/10 02:17:00;;;;;;;1.08;0.55;;;;;;;8.31;73.72;100963.50;5087443;28;20032;-68
2022/02/10 02:19:27;;;;;;;1.00;0.40;;;;;;;8.32;73.53;100976.06;5107200;28;20031;-69
2022/02/10 02:22:06;;;;;;;0.28;0.28;;;;;;;8.32;73.37;100965.16;5104724;28;20051;-68
2022/02/10 02:24:32;;;;;;;0.77;0.75;;;;;;;8.34;73.67;100963.06;5104122;28;20023;-68
2022/02/10 02:27:01;;;;;;;0.60;0.60;;;;;;;8.29;73.10;100960.19;5091644;28;20581;-67
2022/02/10 02:29:35;;;;;;;0.88;0.82;;;;;;;8.24;73.75;100952.75;5100058;28;20122;-67
2022/02/10 02:32:07;;;;;;;2.95;0.63;;;;;;;8.23;74.12;100951.06;5099810;28;20032;-68
2022/02/10 03:05:02;;;;;;;0.90;0.90;;;;;;;7.64;73.61;100948.31;5106354;28;20380;-73
2022/02/10 03:10:04;;;;;;;4.43;1.27;;;;;;;7.44;74.32;100944.00;5114683;28;20020;-75
2022/02/10 03:12:31;;;;;;;0.95;0.95;;;;;;;7.38;73.83;100944.13;5086329;28;20050;-75
2022/02/10 03:14:59;;;;;;;0.70;0.70;;;;;;;7.34;74.38;100954.59;5113385;28;20098;-75
2022/02/10 03:17:54;;;;;;;0.98;0.98;;;;;;;7.27;74.27;100953.88;5104774;28;20024;-76
2022/02/10 03:20:41;;;;;;;1.38;1.10;;;;;;;7.23;74.56;100955.38;5103502;28;20050;-73
2022/02/10 04:16:23;;;;;;;0.93;0.93;;;;;;;6.82;75.57;100974.97;5100163;28;20023;-69
2022/02/10 05:06:56;;;;;;;1.50;0.88;;;;;;;7.18;74.18;100998.78;5083733;28;20850;-68
2022/02/10 05:31:22;;;;;;;2.00;0.90;;;;;;;7.09;74.05;101001.00;5087816;28;20447;-69
2022/02/10 05:35:42;;;;;;;1.08;0.90;;;;;;;7.12;73.39;101014.13;5105990;28;20427;-68
2022/02/10 05:38:12;;;;;;;2.60;1.08;;;;;;;7.15;73.92;101005.50;5079494;28;20047;-68
2022/02/10 05:53:58;;;;;;;1.25;0.70;;;;;;;7.23;72.94;101010.66;5110812;28;20038;-67
2022/02/10 06:52:26;;;;;;;4.20;0.88;;;;;;;6.73;73.57;101014.38;5033404;28;20029;-72
2022/02/10 07:43:19;;;;;;;2.67;0.60;;;;;;;6.59;74.14;101057.16;5098684;28;20364;-69
2022/02/10 07:48:30;;;;;;;3.05;1.17;;;;;;;6.37;74.56;101075.75;5101962;28;20503;-72
2022/02/10 07:53:58;;;;;;;3.75;1.42;;;;;;;6.39;74.30;101094.56;5108817;28;20184;-74
2022/02/10 07:56:50;;;;;;;5.03;1.17;;;;;;;6.39;73.72;101098.09;5088655;28;20011;-68
2022/02/10 08:52:22;;;;;;;7.13;0.68;;;;;;;6.89;70.83;101148.03;5083757;28;20527;-70
2022/02/10 08:57:34;;;;;;;2.28;0.60;;;;;;;6.93;69.85;101154.72;5039793;28;20029;-72
2022/02/10 09:06:03;;;;;;;4.55;0.57;;;;;;;7.00;70.03;101160.91;5097497;28;20079;-71
2022/02/10 10:02:06;;;;;;;2.72;0.52;;;;;;;7.86;66.53;101196.38;5103337;28;20047;-72
2022/02/10 10:04:40;;;;;;;2.45;0.68;;;;;;;7.90;66.79;101210.38;5080918;28;20419;-72
2022/02/10 10:10:45;;;;;;;7.30;1.08;;;;;;;7.66;65.95;101197.44;5095076;28;20252;-70
2022/02/10 10:16:02;;;;;;;1.52;0.73;;;;;;;7.80;66.45;101219.91;5103789;28;20031;-71
2022/02/10 10:21:06;;;;;;;3.40;0.63;;;;;;;8.06;65.17;101228.81;5099217;28;20458;-71
2022/02/10 10:24:01;;;;;;;2.42;0.55;;;;;;;8.23;64.52;101228.19;5094423;28;20038;-69
2022/02/10 10:44:51;;;;;;;4.20;0.60;;;;;;;8.86;59.52;101213.19;5108044;28;20035;-72
2022/02/10 10:50:01;;;;;;;3.63;0.68;;;;;;;9.20;58.85;101222.47;5103626;28;20042;-71
2022/02/10 10:52:51;;;;;;;2.50;0.55;;;;;;;9.36;58.19;101229.13;5096829;28;20016;-71
2022/02/10 10:58:11;;;;;;;2.65;0.50;;;;;;;9.93;57.95;101216.69;5087021;28;20382;-71
2022/02/10 11:00:56;;;;;;;2.13;0.30;;;;;;;10.30;56.91;101224.50;5095218;28;20028;-70
2022/02/10 11:38:26;;;;;;;2.40;0.70;;;;;;;10.38;48.48;101231.50;5107959;28;20042;-71
2022/02/10 12:42:25;;;;;;;2.10;1.05;;;;;;;9.93;51.53;101212.03;5064183;28;20040;-70
2022/02/10 13:02:46;;;;;;;0.57;0.50;;;;;;;10.18;51.20;101212.75;5060966;28;20094;-70
2022/02/10 14:13:58;;;;;;;9.52;1.20;;;;;;;14.51;45.84;101171.31;5100346;28;20093;-72
2022/02/10 14:19:08;;;;;;;5.45;1.13;;;;;;;14.22;39.64;101156.19;5112570;28;20019;-71
2022/02/10 14:21:44;;;;;;;1.65;0.60;;;;;;;13.95;40.86;101164.63;5111802;28;20026;-70
2022/02/10 14:27:19;;;;;;;4.57;0.77;;;;;;;15.23;38.68;101161.13;5104284;28;20062;-71
2022/02/10 14:29:52;;;;;;;10.50;0.90;;;;;;;15.43;38.21;101154.69;5094319;28;20342;-70
2022/02/10 14:32:22;;;;;;;4.80;0.80;;;;;;;15.55;36.30;101162.66;5093877;28;20024;-71
2022/02/10 14:35:08;;;;;;;3.30;0.32;;;;;;;15.64;36.26;101157.41;5103581;28;20420;-70
2022/02/10 14:40:23;;;;;;;3.47;0.75;;;;;;;14.20;36.03;101154.78;5094064;28;20472;-70
2022/02/10 15:16:58;;;;;;;1.40;0.57;;;;;;;14.88;33.75;101171.09;5106650;28;20020;-71
2022/02/10 16:18:08;;;;;;;1.00;0.47;;;;;;;11.74;39.57;101169.25;5105495;28;20449;-72
2022/02/10 16:21:28;;;;;;;;;;;;;;;;;;;;;
2022/02/10 16:24:01;;;;;;;3.05;0.70;;;;;;;10.00;44.27;101170.06;5096182;28;20039;-71
2022/02/10 16:26:39;;;;;;;4.68;0.80;;;;;;;9.48;45.51;101185.44;5109761;28;20020;-71
2022/02/10 16:29:17;;;;;;;2.80;0.63;;;;;;;8.96;46.92;101174.44;5077404;28;20027;-73
2022/02/10 16:32:18;;;;;;;;;;;;;;;;;;;;;
2022/02/10 16:34:49;;;;;;;6.88;0.68;;;;;;;8.32;49.04;101185.91;5097188;28;20027;-71
2022/02/10 16:40:46;;;;;;;2.83;0.85;;;;;;;7.81;51.02;101191.63;5102062;28;20042;-71
2022/02/10 16:43:16;;;;;;;;;;;;;;;7.69;51.14;101198.88;5082165;28;20084;-71
2022/02/10 16:46:11;;;;;;;;;;;;;;;;;;;;;
2022/02/10 16:49:10;;;;;;;;;;;;;;;;;;;;;
2022/02/10 16:52:00;;;;;;;2.03;0.65;;;;;;;7.31;52.12;101210.81;5104686;28;20030;-71
2022/02/10 16:54:40;;;;;;;1.20;0.70;;;;;;;7.24;51.80;101201.91;5087675;28;20024;-70
2022/02/10 16:57:43;;;;;;;5.70;0.47;;;;;;;7.16;52.58;101205.75;5109446;28;20067;-71
2022/02/10 17:04:30;;;;;;;3.83;0.52;;;;;;;6.95;53.97;101212.41;5111584;28;20372;-70
2022/02/10 17:19:07;;;;;;;13.00;0.60;;;;;;;6.32;56.09;101211.41;5112289;28;20026;-72
2022/02/10 17:27:36;;;;;;;;;;;;;;;;;;;;;
2022/02/10 17:31:09;;;;;;;8.88;0.80;;;;;;;6.01;58.03;101233.94;5102690;28;20066;-73
2022/02/10 17:34:25;;;;;;;6.15;0.68;;;;;;;5.86;58.84;101232.28;5106364;28;20032;-73
2022/02/10 17:54:07;;;;;;;2.47;0.50;;;;;;;5.76;59.45;101270.75;5102401;28;20070;-72
2022/02/10 17:56:49;;;;;;;1.73;0.65;;;;;;;5.67;58.91;101277.44;5092528;28;20132;-72
2022/02/10 17:59:28;;;;;;;;;;;;;;;;;;;;;
2022/02/10 18:01:54;;;;;;;3.13;0.60;;;;;;;5.46;62.04;101280.41;5117956;28;20026;-73
2022/02/10 18:04:22;;;;;;;3.75;0.60;;;;;;;5.48;61.94;101289.19;5095703;28;20047;-72
2022/02/10 18:07:16;;;;;;;4.68;0.70;;;;;;;5.45;62.58;101287.72;5093639;28;20044;-74
2022/02/10 18:10:05;;;;;;;4.93;0.68;;;;;;;5.43;62.16;101276.22;5064576;28;20046;-74
2022/02/10 18:13:23;;;;;;;6.60;0.73;;;;;;;5.35;62.28;101280.00;5077335;28;20088;-73
2022/02/10 18:16:15;;;;;;;3.88;0.63;;;;;;;5.38;62.83;101281.47;5102588;28;20032;-72
2022/02/10 18:18:56;;;;;;;4.80;0.95;;;;;;;5.29;62.61;101275.44;5085035;28;20024;-72
2022/02/10 18:24:06;;;;;;;12.07;1.02;;;;;;;5.19;63.32;101283.16;5106746;28;20097;-72
2022/02/10 19:01:41;;;;;;;9.07;1.27;;;;;;;4.60;65.83;101320.84;5103771;28;20038;-73
2022/02/10 19:08:08;;;;;;;1.20;0.45;;;;;;;4.77;63.73;101369.22;5104553;28;20052;-72
2022/02/10 19:10:35;;;;;;;2.08;0.77;;;;;;;4.74;63.41;101359.63;5091797;28;20035;-73
2022/02/10 19:13:09;;;;;;;2.83;1.10;;;;;;;4.81;63.30;101367.78;5105032;28;20032;-72
2022/02/10 19:15:44;;;;;;;1.20;0.50;;;;;;;4.76;63.25;101359.41;5083938;28;20027;-72
2022/02/10 19:18:13;;;;;;;1.97;0.67;;;;;;;4.77;63.38;101374.66;5105707;28;20036;-74
2022/02/10 19:20:39;;;;;;;1.55;0.55;;;;;;;4.72;62.82;101381.50;5102375;28;20394;-72
2022/02/10 19:23:34;;;;;;;4.40;0.77;;;;;;;4.69;62.46;101371.06;5092209;28;20023;-74
2022/02/10 19:26:04;;;;;;;3.20;0.82;;;;;;;4.71;63.18;101389.84;5104043;28;20191;-73
2022/02/10 19:28:39;;;;;;;6.15;1.23;;;;;;;4.60;62.92;101374.16;5106959;28;20035;-75
2022/02/10 19:31:07;;;;;;;7.75;0.82;;;;;;;4.57;63.97;101391.69;5084720;28;20042;-70
2022/02/10 19:33:32;;;;;;;3.30;0.85;;;;;;;4.56;63.44;101392.72;5095404;28;20023;-72
2022/02/10 19:36:00;;;;;;;4.45;0.80;;;;;;;4.53;63.38;101390.41;5081721;28;20392;-73
2022/02/10 19:38:28;;;;;;;5.32;0.57;;;;;;;4.47;63.60;101399.34;5101586;28;20110;-72
2022/02/10 19:40:55;;;;;;;4.63;1.20;;;;;;;4.45;64.09;101404.13;5089197;28;20110;-71
2022/02/10 19:43:22;;;;;;;2.47;0.77;;;;;;;4.39;64.28;101404.94;5092142;28;20476;-71
2022/02/10 19:45:48;;;;;;;6.70;1.33;;;;;;;4.35;64.28;101410.75;5079385;28;20042;-72
2022/02/10 19:48:15;;;;;;;7.75;1.17;;;;;;;4.32;64.02;101421.97;5110159;28;20022;-72
2022/02/10 19:50:42;;;;;;;1.13;0.85;;;;;;;4.31;64.42;101414.88;5115254;28;20030;-73
2022/02/10 19:53:12;;;;;;;3.22;1.00;;;;;;;4.29;64.20;101416.97;5112107;28;20036;-74
2022/02/10 19:55:45;;;;;;;3.92;1.90;;;;;;;4.28;64.03;101414.44;5100936;28;20063;-74
2022/02/10 19:58:20;;;;;;;3.63;0.70;;;;;;;4.22;64.17;101416.09;5085771;28;20032;-76
2022/02/10 20:01:03;;;;;;;6.03;1.85;;;;;;;4.12;64.49;101402.09;5091738;28;20019;-76
2022/02/10 20:03:32;;;;;;;2.03;0.75;;;;;;;4.05;64.13;101403.91;5059971;28;20080;-76
2022/02/10 20:06:03;;;;;;;12.50;2.00;;;;;;;4.01;65.19;101409.69;5108996;28;20165;-74
2022/02/10 20:09:03;;;;;;;9.70;0.95;;;;;;;3.90;64.87;101402.16;5106196;28;20476;-77
2022/02/10 20:11:29;;;;;;;8.70;1.08;;;;;;;3.90;65.24;101412.97;5090466;28;20088;-71
2022/02/10 20:13:57;;;;;;;4.32;1.15;;;;;;;3.89;65.44;101415.88;5112314;28;20110;-73
2022/02/10 20:16:30;;;;;;;5.25;1.25;;;;;;;3.83;65.27;101414.78;5108528;28;20046;-74
2022/02/10 20:19:10;;;;;;;2.22;1.00;;;;;;;3.73;65.79;101400.78;5092086;28;20034;-74
2022/02/10 20:21:39;;;;;;;7.25;0.70;;;;;;;3.77;65.52;101418.28;5094303;28;20058;-71
2022/02/10 20:24:13;;;;;;;2.95;1.35;;;;;;;3.74;65.38;101429.47;5093399;28;20040;-71
2022/02/10 20:26:48;;;;;;;2.60;0.98;;;;;;;3.67;65.74;101419.44;5090593;28;20024;-74
2022/02/10 20:33:05;;;;;;;7.35;1.10;;;;;;;3.56;65.59;101419.97;5017141;28;20033;-70
2022/02/10 20:35:49;;;;;;;4.07;1.23;;;;;;;3.52;65.55;101410.59;4995310;28;20491;-72
2022/02/10 20:42:21;;;;;;;;;;;;;;;;;;;;;
2022/02/10 20:44:52;;;;;;;5.85;1.15;;;;;;;3.52;65.69;101416.00;5006472;28;20034;-69
2022/02/10 20:47:46;;;;;;;2.35;1.02;;;;;;;3.60;65.67;101442.06;5011241;28;20030;-71
2022/02/10 20:50:37;;;;;;;16.25;1.10;;;;;;;3.59;65.21;101448.50;5026946;28;20098;-69
2022/02/10 20:53:14;;;;;;;4.90;1.52;;;;;;;3.52;65.38;101442.19;5039925;28;20040;-72
2022/02/10 20:56:33;;;;;;;;;;;;;;;;;;;;;
2022/02/10 20:59:06;;;;;;;6.88;1.10;;;;;;;3.58;64.91;101436.88;5098922;28;20115;-71
2022/02/10 21:11:38;;;;;;;3.78;0.52;;;;;;;3.53;64.63;101466.34;5080811;28;20077;-72
2022/02/10 21:14:07;;;;;;;2.72;0.70;;;;;;;3.47;65.17;101459.00;5112626;28;20035;-73
2022/02/10 21:16:35;;;;;;;5.30;1.33;;;;;;;3.48;64.36;101460.69;5076076;28;20428;-74
2022/02/10 21:22:34;;;;;;;3.88;0.75;;;;;;;3.42;64.89;101472.28;5104154;28;20054;-73
2022/02/10 21:25:35;;;;;;;;;;;;;;;;;;;;;
2022/02/10 21:28:13;;;;;;;2.35;1.05;;;;;;;3.19;65.70;101459.78;5098517;28;20039;-72
2022/02/10 21:30:57;;;;;;;5.35;1.13;;;;;;;3.16;65.69;101470.97;5096644;28;20058;-69
2022/02/10 21:39:14;;;;;;;11.52;1.58;;;;;;;3.05;66.50;101472.31;5104663;28;20107;-68
2022/02/10 22:19:00;;;;;;;5.38;1.00;;;;;;;2.76;67.84;101490.25;5106810;28;20027;-71
2022/02/10 22:21:32;;;;;;;0.88;0.70;;;;;;;2.73;68.21;101487.09;5092099;28;20098;-71
2022/02/10 22:24:15;;;;;;;10.63;1.38;;;;;;;2.71;68.62;101486.44;5095061;28;20030;-71
2022/02/10 22:26:52;;;;;;;;;;;;;;;;;;;;;
2022/02/10 22:30:14;;;;;;;;;;;;;;;;;;;;;
2022/02/10 22:36:03;;;;;;;7.60;1.20;;;;;;;2.62;68.83;101488.41;5019459;28;20072;-70
2022/02/10 22:38:29;;;;;;;3.20;0.70;;;;;;;2.55;68.99;101479.38;5016507;28;20027;-71
2022/02/10 22:43:20;;;;;;;23.23;1.52;;;;;;;2.54;69.23;101483.94;5098088;28;20027;-72
2022/02/10 22:45:45;;;;;;;10.65;1.30;;;;;;;2.60;69.75;101499.41;5102257;28;20032;-74
2022/02/10 22:48:15;;;;;;;6.93;1.05;;;;;;;2.59;70.04;101497.72;5093437;28;20393;-74
2022/02/10 22:50:51;;;;;;;15.00;1.70;;;;;;;2.56;71.00;101484.59;5094530;28;20105;-70
2022/02/10 22:53:16;;;;;;;5.32;1.10;;;;;;;2.67;71.21;101498.66;5094819;28;20031;-71
2022/02/10 22:55:54;;;;;;;;;;;;;;;;;;;;;
2022/02/10 22:58:20;;;;;;;8.65;2.00;;;;;;;2.79;71.26;101502.56;5117298;28;20079;-73
2022/02/10 23:00:49;;;;;;;3.08;0.95;;;;;;;2.81;70.67;101503.19;5111268;28;20055;-75
2022/02/10 23:03:19;;;;;;;8.82;1.05;;;;;;;2.83;70.51;101503.00;5112767;28;20032;-73
2022/02/10 23:05:50;;;;;;;4.93;1.10;;;;;;;2.89;70.14;101519.31;5086710;28;20055;-72
2022/02/10 23:08:28;;;;;;;;;;;;;;;;;;;;;
2022/02/10 23:11:27;;;;;;;11.27;1.45;;;;;;;2.85;69.85;101526.13;5113418;28;20122;-74
2022/02/10 23:24:07;;;;;;;;;;;;;;;;;;;;;
2022/02/10 23:26:52;;;;;;;6.43;1.30;;;;;;;2.73;70.49;101551.91;4943288;29;20114;-76
2022/02/10 23:29:43;;;;;;;10.27;1.30;;;;;;;2.60;70.70;101525.56;4977025;28;20026;-75
2022/02/10 23:32:10;;;;;;;1.55;0.73;;;;;;;2.83;70.77;101557.03;5007652;28;20042;-71
2022/02/10 23:34:36;;;;;;;5.75;1.73;;;;;;;2.86;70.99;101546.72;5060726;28;20031;-72
2022/02/10 23:37:02;;;;;;;3.15;0.60;;;;;;;3.02;70.65;101561.84;5103240;28;20099;-71
2022/02/10 23:39:31;;;;;;;3.05;1.25;;;;;;;3.11;70.29;101565.28;5105313;28;20062;-72
2022/02/10 23:44:27;;;;;;;2.80;0.45;;;;;;;3.23;69.82;101566.50;5104865;28;20035;-72
2022/02/10 23:46:53;;;;;;;5.20;1.05;;;;;;;3.26;69.91;101568.81;5093407;28;20027;-73
2022/02/10 23:49:21;;;;;;;2.90;0.80;;;;;;;3.29;69.51;101581.97;5105603;28;20031;-71
2022/02/10 23:52:00;;;;;;;7.18;0.88;;;;;;;3.30;69.07;101580.09;5090840;28;20027;-73
2022/02/10 23:54:28;;;;;;;2.00;0.65;;;;;;;3.31;69.31;101581.78;5102968;28;20101;-73
2022/02/10 23:57:03;;;;;;;7.53;0.73;;;;;;;3.28;68.92;101582.16;5093146;28;20016;-73
